sensor_id;sensor_type;location;lat;lon;timestamp;P1;durP1;ratioP1;P2;durP2;ratioP2
82797;SDS011;72540;62.834;27.606;2023-12-22T00:01:25;2.75;;;0.98;;
82797;SDS011;72540;62.834;27.606;2023-12-22T00:03:50;3.95;;;1.08;;
82797;SDS011;72540;62.834;27.606;2023-12-22T00:06:16;4.18;;;1.10;;
82797;SDS011;72540;62.834;27.606;2023-12-22T00:08:42;4.40;;;1.17;;
82797;SDS011;72540;62.834;27.606;2023-12-22T00:11:07;3.10;;;1.17;;
82797;SDS011;72540;62.834;27.606;2023-12-22T00:13:33;2.67;;;0.93;;
82797;SDS011;72540;62.834;27.606;2023-12-22T00:15:59;6.15;;;1.00;;
82797;SDS011;72540;62.834;27.606;2023-12-22T00:18:28;3.92;;;0.90;;
82797;SDS011;72540;62.834;27.606;2023-12-22T00:20:54;2.88;;;0.90;;
82797;SDS011;72540;62.834;27.606;2023-12-22T00:23:19;1.50;;;0.70;;
82797;SDS011;72540;62.834;27.606;2023-12-22T00:25:45;5.88;;;1.30;;
82797;SDS011;72540;62.834;27.606;2023-12-22T00:28:10;3.17;;;0.80;;
82797;SDS011;72540;62.834;27.606;2023-12-22T00:30:36;3.67;;;1.10;;
82797;SDS011;72540;62.834;27.606;2023-12-22T00:33:02;2.80;;;1.23;;
82797;SDS011;72540;62.834;27.606;2023-12-22T00:35:28;4.43;;;1.08;;
82797;SDS011;72540;62.834;27.606;2023-12-22T00:37:53;3.88;;;0.98;;
82797;SDS011;72540;62.834;27.606;2023-12-22T00:40:19;3.47;;;0.98;;
82797;SDS011;72540;62.834;27.606;2023-12-22T00:42:44;5.32;;;0.93;;
82797;SDS011;72540;62.834;27.606;2023-12-22T00:45:10;2.53;;;0.70;;
82797;SDS011;72540;62.834;27.606;2023-12-22T00:47:36;3.88;;;1.50;;
82797;SDS011;72540;62.834;27.606;2023-12-22T00:50:02;3.83;;;1.13;;
82797;SDS011;72540;62.834;27.606;2023-12-22T00:52:29;4.15;;;1.00;;
82797;SDS011;72540;62.834;27.606;2023-12-22T00:54:56;4.80;;;1.08;;
82797;SDS011;72540;62.834;27.606;2023-12-22T00:57:21;4.38;;;1.30;;
82797;SDS011;72540;62.834;27.606;2023-12-22T00:59:47;3.70;;;1.20;;
82797;SDS011;72540;62.834;27.606;2023-12-22T01:02:14;3.80;;;1.33;;
82797;SDS011;72540;62.834;27.606;2023-12-22T01:04:40;6.38;;;1.10;;
82797;SDS011;72540;62.834;27.606;2023-12-22T01:07:09;3.63;;;1.00;;
82797;SDS011;72540;62.834;27.606;2023-12-22T01:09:36;2.53;;;0.88;;
82797;SDS011;72540;62.834;27.606;2023-12-22T01:12:05;2.75;;;1.00;;
82797;SDS011;72540;62.834;27.606;2023-12-22T01:14:32;3.05;;;1.00;;
82797;SDS011;72540;62.834;27.606;2023-12-22T01:16:58;3.17;;;1.00;;
82797;SDS011;72540;62.834;27.606;2023-12-22T01:19:27;3.55;;;0.90;;
82797;SDS011;72540;62.834;27.606;2023-12-22T01:21:53;2.60;;;1.02;;
82797;SDS011;72540;62.834;27.606;2023-12-22T01:24:19;2.50;;;0.90;;
82797;SDS011;72540;62.834;27.606;2023-12-22T01:26:44;4.38;;;0.98;;
82797;SDS011;72540;62.834;27.606;2023-12-22T01:29:10;2.20;;;0.80;;
82797;SDS011;72540;62.834;27.606;2023-12-22T01:31:35;3.42;;;1.48;;
82797;SDS011;72540;62.834;27.606;2023-12-22T01:34:01;1.92;;;0.73;;
82797;SDS011;72540;62.834;27.606;2023-12-22T01:36:27;3.65;;;1.00;;
82797;SDS011;72540;62.834;27.606;2023-12-22T01:38:52;2.85;;;1.10;;
82797;SDS011;72540;62.834;27.606;2023-12-22T01:41:18;7.03;;;0.95;;
82797;SDS011;72540;62.834;27.606;2023-12-22T01:43:44;5.38;;;1.13;;
82797;SDS011;72540;62.834;27.606;2023-12-22T01:46:10;2.25;;;0.85;;
82797;SDS011;72540;62.834;27.606;2023-12-22T01:48:36;5.10;;;0.82;;
82797;SDS011;72540;62.834;27.606;2023-12-22T01:51:03;2.83;;;1.00;;
82797;SDS011;72540;62.834;27.606;2023-12-22T01:53:29;2.15;;;0.90;;
82797;SDS011;72540;62.834;27.606;2023-12-22T01:55:55;3.47;;;0.68;;
82797;SDS011;72540;62.834;27.606;2023-12-22T01:58:22;3.63;;;1.10;;
82797;SDS011;72540;62.834;27.606;2023-12-22T02:00:48;2.13;;;0.82;;
82797;SDS011;72540;62.834;27.606;2023-12-22T02:03:14;2.38;;;1.02;;
82797;SDS011;72540;62.834;27.606;2023-12-22T02:05:40;3.40;;;1.00;;
82797;SDS011;72540;62.834;27.606;2023-12-22T02:08:06;2.55;;;0.82;;
82797;SDS011;72540;62.834;27.606;2023-12-22T02:10:32;2.63;;;0.80;;
82797;SDS011;72540;62.834;27.606;2023-12-22T02:12:58;2.92;;;0.82;;
82797;SDS011;72540;62.834;27.606;2023-12-22T02:15:24;4.75;;;0.93;;
82797;SDS011;72540;62.834;27.606;2023-12-22T02:17:55;3.10;;;1.10;;
82797;SDS011;72540;62.834;27.606;2023-12-22T02:20:36;3.33;;;0.70;;
82797;SDS011;72540;62.834;27.606;2023-12-22T02:23:02;2.75;;;1.02;;
82797;SDS011;72540;62.834;27.606;2023-12-22T02:25:28;1.70;;;0.68;;
82797;SDS011;72540;62.834;27.606;2023-12-22T02:27:54;1.70;;;0.70;;
82797;SDS011;72540;62.834;27.606;2023-12-22T02:30:25;4.30;;;1.05;;
82797;SDS011;72540;62.834;27.606;2023-12-22T02:32:52;2.85;;;0.73;;
82797;SDS011;72540;62.834;27.606;2023-12-22T02:35:23;3.75;;;1.17;;
82797;SDS011;72540;62.834;27.606;2023-12-22T02:37:50;2.70;;;0.80;;
82797;SDS011;72540;62.834;27.606;2023-12-22T02:40:16;2.38;;;0.95;;
82797;SDS011;72540;62.834;27.606;2023-12-22T02:42:43;2.08;;;0.80;;
82797;SDS011;72540;62.834;27.606;2023-12-22T02:45:16;4.40;;;1.13;;
82797;SDS011;72540;62.834;27.606;2023-12-22T02:47:42;2.63;;;1.00;;
82797;SDS011;72540;62.834;27.606;2023-12-22T02:50:09;3.53;;;1.00;;
82797;SDS011;72540;62.834;27.606;2023-12-22T02:52:35;2.35;;;0.60;;
82797;SDS011;72540;62.834;27.606;2023-12-22T02:55:01;4.97;;;1.10;;
82797;SDS011;72540;62.834;27.606;2023-12-22T02:57:27;2.05;;;0.55;;
82797;SDS011;72540;62.834;27.606;2023-12-22T02:59:52;2.90;;;0.90;;
82797;SDS011;72540;62.834;27.606;2023-12-22T03:02:18;2.22;;;0.68;;
82797;SDS011;72540;62.834;27.606;2023-12-22T03:04:44;5.53;;;0.77;;
82797;SDS011;72540;62.834;27.606;2023-12-22T03:07:11;4.35;;;1.08;;
82797;SDS011;72540;62.834;27.606;2023-12-22T03:09:38;3.05;;;1.20;;
82797;SDS011;72540;62.834;27.606;2023-12-22T03:12:05;3.63;;;0.90;;
82797;SDS011;72540;62.834;27.606;2023-12-22T03:14:31;3.08;;;0.82;;
82797;SDS011;72540;62.834;27.606;2023-12-22T03:16:59;3.17;;;0.93;;
82797;SDS011;72540;62.834;27.606;2023-12-22T03:19:25;3.60;;;0.90;;
82797;SDS011;72540;62.834;27.606;2023-12-22T03:21:51;3.17;;;1.00;;
82797;SDS011;72540;62.834;27.606;2023-12-22T03:24:16;7.03;;;1.20;;
82797;SDS011;72540;62.834;27.606;2023-12-22T03:26:44;2.95;;;1.00;;
82797;SDS011;72540;62.834;27.606;2023-12-22T03:29:11;6.00;;;1.60;;
82797;SDS011;72540;62.834;27.606;2023-12-22T03:31:36;3.58;;;1.08;;
82797;SDS011;72540;62.834;27.606;2023-12-22T03:34:02;2.90;;;1.00;;
82797;SDS011;72540;62.834;27.606;2023-12-22T03:36:28;3.28;;;1.20;;
82797;SDS011;72540;62.834;27.606;2023-12-22T03:38:54;3.53;;;1.13;;
82797;SDS011;72540;62.834;27.606;2023-12-22T03:41:19;4.93;;;1.35;;
82797;SDS011;72540;62.834;27.606;2023-12-22T03:43:45;2.60;;;0.90;;
82797;SDS011;72540;62.834;27.606;2023-12-22T03:46:11;5.03;;;1.23;;
82797;SDS011;72540;62.834;27.606;2023-12-22T03:48:37;1.88;;;0.75;;
82797;SDS011;72540;62.834;27.606;2023-12-22T03:51:02;3.63;;;0.98;;
82797;SDS011;72540;62.834;27.606;2023-12-22T03:53:28;2.92;;;1.13;;
82797;SDS011;72540;62.834;27.606;2023-12-22T03:55:54;3.10;;;0.85;;
82797;SDS011;72540;62.834;27.606;2023-12-22T03:58:20;2.47;;;0.98;;
82797;SDS011;72540;62.834;27.606;2023-12-22T04:00:46;5.75;;;1.23;;
82797;SDS011;72540;62.834;27.606;2023-12-22T04:03:12;2.10;;;0.80;;
82797;SDS011;72540;62.834;27.606;2023-12-22T04:05:38;3.45;;;0.90;;
82797;SDS011;72540;62.834;27.606;2023-12-22T04:08:04;4.28;;;1.10;;
82797;SDS011;72540;62.834;27.606;2023-12-22T04:10:31;4.82;;;0.90;;
82797;SDS011;72540;62.834;27.606;2023-12-22T04:12:57;2.35;;;0.90;;
82797;SDS011;72540;62.834;27.606;2023-12-22T04:15:22;3.67;;;1.00;;
82797;SDS011;72540;62.834;27.606;2023-12-22T04:17:48;4.50;;;0.85;;
82797;SDS011;72540;62.834;27.606;2023-12-22T04:20:15;2.50;;;0.90;;
82797;SDS011;72540;62.834;27.606;2023-12-22T04:22:41;3.78;;;1.05;;
82797;SDS011;72540;62.834;27.606;2023-12-22T04:25:07;1.85;;;0.80;;
82797;SDS011;72540;62.834;27.606;2023-12-22T04:27:33;3.75;;;0.90;;
82797;SDS011;72540;62.834;27.606;2023-12-22T04:29:59;3.33;;;1.15;;
82797;SDS011;72540;62.834;27.606;2023-12-22T04:32:25;2.67;;;0.82;;
82797;SDS011;72540;62.834;27.606;2023-12-22T04:34:51;5.25;;;1.17;;
82797;SDS011;72540;62.834;27.606;2023-12-22T04:37:16;4.13;;;1.15;;
82797;SDS011;72540;62.834;27.606;2023-12-22T04:39:42;4.45;;;1.00;;
82797;SDS011;72540;62.834;27.606;2023-12-22T04:42:08;2.67;;;0.85;;
82797;SDS011;72540;62.834;27.606;2023-12-22T04:44:33;2.20;;;0.80;;
82797;SDS011;72540;62.834;27.606;2023-12-22T04:46:59;2.33;;;0.93;;
82797;SDS011;72540;62.834;27.606;2023-12-22T04:49:25;1.67;;;0.80;;
82797;SDS011;72540;62.834;27.606;2023-12-22T04:51:51;3.13;;;1.05;;
82797;SDS011;72540;62.834;27.606;2023-12-22T04:54:16;3.28;;;0.88;;
82797;SDS011;72540;62.834;27.606;2023-12-22T04:56:42;3.00;;;0.90;;
82797;SDS011;72540;62.834;27.606;2023-12-22T04:59:07;3.50;;;0.95;;
82797;SDS011;72540;62.834;27.606;2023-12-22T05:01:33;3.80;;;1.10;;
82797;SDS011;72540;62.834;27.606;2023-12-22T05:03:59;3.63;;;1.05;;
82797;SDS011;72540;62.834;27.606;2023-12-22T05:06:25;5.95;;;1.13;;
82797;SDS011;72540;62.834;27.606;2023-12-22T05:08:51;3.75;;;1.20;;
82797;SDS011;72540;62.834;27.606;2023-12-22T05:11:16;3.25;;;1.10;;
82797;SDS011;72540;62.834;27.606;2023-12-22T05:13:42;3.33;;;1.00;;
82797;SDS011;72540;62.834;27.606;2023-12-22T05:16:09;4.65;;;1.08;;
82797;SDS011;72540;62.834;27.606;2023-12-22T05:18:35;2.53;;;0.85;;
82797;SDS011;72540;62.834;27.606;2023-12-22T05:21:01;3.05;;;0.82;;
82797;SDS011;72540;62.834;27.606;2023-12-22T05:23:26;2.50;;;1.05;;
82797;SDS011;72540;62.834;27.606;2023-12-22T05:25:52;2.22;;;0.70;;
82797;SDS011;72540;62.834;27.606;2023-12-22T05:28:18;3.80;;;1.27;;
82797;SDS011;72540;62.834;27.606;2023-12-22T05:30:43;3.72;;;1.30;;
82797;SDS011;72540;62.834;27.606;2023-12-22T05:33:09;3.63;;;1.17;;
82797;SDS011;72540;62.834;27.606;2023-12-22T05:35:35;5.72;;;1.10;;
82797;SDS011;72540;62.834;27.606;2023-12-22T05:38:00;6.95;;;1.33;;
82797;SDS011;72540;62.834;27.606;2023-12-22T05:40:26;3.97;;;1.23;;
82797;SDS011;72540;62.834;27.606;2023-12-22T05:42:52;4.05;;;1.30;;
82797;SDS011;72540;62.834;27.606;2023-12-22T05:45:17;4.28;;;1.20;;
82797;SDS011;72540;62.834;27.606;2023-12-22T05:47:43;3.80;;;1.00;;
82797;SDS011;72540;62.834;27.606;2023-12-22T05:50:09;4.97;;;1.58;;
82797;SDS011;72540;62.834;27.606;2023-12-22T05:52:36;2.28;;;0.88;;
82797;SDS011;72540;62.834;27.606;2023-12-22T05:55:01;7.90;;;1.20;;
82797;SDS011;72540;62.834;27.606;2023-12-22T05:57:27;4.97;;;1.38;;
82797;SDS011;72540;62.834;27.606;2023-12-22T05:59:53;4.60;;;1.40;;
82797;SDS011;72540;62.834;27.606;2023-12-22T06:02:18;4.60;;;1.65;;
82797;SDS011;72540;62.834;27.606;2023-12-22T06:04:44;4.20;;;1.23;;
82797;SDS011;72540;62.834;27.606;2023-12-22T06:07:10;2.85;;;0.95;;
82797;SDS011;72540;62.834;27.606;2023-12-22T06:09:36;4.25;;;1.35;;
82797;SDS011;72540;62.834;27.606;2023-12-22T06:12:02;5.28;;;2.50;;
82797;SDS011;72540;62.834;27.606;2023-12-22T06:14:28;6.50;;;1.92;;
82797;SDS011;72540;62.834;27.606;2023-12-22T06:16:53;5.05;;;1.70;;
82797;SDS011;72540;62.834;27.606;2023-12-22T06:19:22;5.90;;;2.13;;
82797;SDS011;72540;62.834;27.606;2023-12-22T06:21:50;3.65;;;1.40;;
82797;SDS011;72540;62.834;27.606;2023-12-22T06:24:15;4.35;;;1.25;;
82797;SDS011;72540;62.834;27.606;2023-12-22T06:26:41;4.72;;;1.30;;
82797;SDS011;72540;62.834;27.606;2023-12-22T06:29:07;5.03;;;1.90;;
82797;SDS011;72540;62.834;27.606;2023-12-22T06:31:35;4.38;;;1.38;;
82797;SDS011;72540;62.834;27.606;2023-12-22T06:34:02;4.00;;;1.23;;
82797;SDS011;72540;62.834;27.606;2023-12-22T06:36:27;5.43;;;1.23;;
82797;SDS011;72540;62.834;27.606;2023-12-22T06:38:57;3.50;;;1.20;;
82797;SDS011;72540;62.834;27.606;2023-12-22T06:41:25;4.88;;;1.45;;
82797;SDS011;72540;62.834;27.606;2023-12-22T06:43:52;4.95;;;1.13;;
82797;SDS011;72540;62.834;27.606;2023-12-22T06:46:19;5.00;;;1.63;;
82797;SDS011;72540;62.834;27.606;2023-12-22T06:48:45;3.60;;;1.08;;
82797;SDS011;72540;62.834;27.606;2023-12-22T06:51:18;5.88;;;1.48;;
82797;SDS011;72540;62.834;27.606;2023-12-22T06:53:45;3.10;;;1.10;;
82797;SDS011;72540;62.834;27.606;2023-12-22T06:56:15;3.38;;;0.90;;
82797;SDS011;72540;62.834;27.606;2023-12-22T06:58:45;4.68;;;1.80;;
82797;SDS011;72540;62.834;27.606;2023-12-22T07:03:51;6.05;;;1.17;;
82797;SDS011;72540;62.834;27.606;2023-12-22T07:06:17;3.22;;;1.05;;
82797;SDS011;72540;62.834;27.606;2023-12-22T07:08:56;4.80;;;1.35;;
82797;SDS011;72540;62.834;27.606;2023-12-22T07:11:22;4.45;;;1.25;;
82797;SDS011;72540;62.834;27.606;2023-12-22T07:13:48;3.17;;;1.13;;
82797;SDS011;72540;62.834;27.606;2023-12-22T07:16:14;5.18;;;1.40;;
82797;SDS011;72540;62.834;27.606;2023-12-22T07:18:40;2.42;;;1.08;;
82797;SDS011;72540;62.834;27.606;2023-12-22T07:21:05;3.45;;;1.02;;
82797;SDS011;72540;62.834;27.606;2023-12-22T07:23:31;3.92;;;1.48;;
82797;SDS011;72540;62.834;27.606;2023-12-22T07:25:57;4.47;;;1.30;;
82797;SDS011;72540;62.834;27.606;2023-12-22T07:28:23;4.53;;;1.42;;
82797;SDS011;72540;62.834;27.606;2023-12-22T07:30:49;3.58;;;1.13;;
82797;SDS011;72540;62.834;27.606;2023-12-22T07:33:15;3.97;;;1.13;;
82797;SDS011;72540;62.834;27.606;2023-12-22T07:35:40;3.85;;;1.23;;
82797;SDS011;72540;62.834;27.606;2023-12-22T07:38:06;3.50;;;1.40;;
82797;SDS011;72540;62.834;27.606;2023-12-22T07:40:31;5.53;;;1.48;;
82797;SDS011;72540;62.834;27.606;2023-12-22T07:42:57;7.28;;;2.00;;
82797;SDS011;72540;62.834;27.606;2023-12-22T07:45:23;4.20;;;1.30;;
82797;SDS011;72540;62.834;27.606;2023-12-22T07:47:49;2.40;;;0.73;;
82797;SDS011;72540;62.834;27.606;2023-12-22T07:50:15;3.17;;;1.15;;
82797;SDS011;72540;62.834;27.606;2023-12-22T07:52:40;4.20;;;1.63;;
82797;SDS011;72540;62.834;27.606;2023-12-22T07:55:07;5.30;;;1.10;;
82797;SDS011;72540;62.834;27.606;2023-12-22T07:57:35;4.28;;;1.30;;
82797;SDS011;72540;62.834;27.606;2023-12-22T08:00:02;3.78;;;1.48;;
82797;SDS011;72540;62.834;27.606;2023-12-22T08:02:29;2.80;;;1.02;;
82797;SDS011;72540;62.834;27.606;2023-12-22T08:04:54;6.85;;;1.95;;
82797;SDS011;72540;62.834;27.606;2023-12-22T08:07:20;7.07;;;2.13;;
82797;SDS011;72540;62.834;27.606;2023-12-22T08:09:46;8.40;;;1.80;;
82797;SDS011;72540;62.834;27.606;2023-12-22T08:12:11;6.20;;;1.95;;
82797;SDS011;72540;62.834;27.606;2023-12-22T08:14:37;3.65;;;1.13;;
82797;SDS011;72540;62.834;27.606;2023-12-22T08:17:03;2.60;;;1.08;;
82797;SDS011;72540;62.834;27.606;2023-12-22T08:19:28;2.47;;;0.90;;
82797;SDS011;72540;62.834;27.606;2023-12-22T08:21:54;4.05;;;1.23;;
82797;SDS011;72540;62.834;27.606;2023-12-22T08:24:20;5.10;;;1.35;;
82797;SDS011;72540;62.834;27.606;2023-12-22T08:26:46;5.78;;;1.52;;
82797;SDS011;72540;62.834;27.606;2023-12-22T08:29:13;4.22;;;1.10;;
82797;SDS011;72540;62.834;27.606;2023-12-22T08:31:39;4.90;;;1.48;;
82797;SDS011;72540;62.834;27.606;2023-12-22T08:34:04;3.95;;;1.20;;
82797;SDS011;72540;62.834;27.606;2023-12-22T08:36:31;3.95;;;1.25;;
82797;SDS011;72540;62.834;27.606;2023-12-22T08:38:57;9.40;;;2.78;;
82797;SDS011;72540;62.834;27.606;2023-12-22T08:41:23;5.00;;;1.65;;
82797;SDS011;72540;62.834;27.606;2023-12-22T08:43:49;4.30;;;1.10;;
82797;SDS011;72540;62.834;27.606;2023-12-22T08:46:15;4.60;;;1.58;;
82797;SDS011;72540;62.834;27.606;2023-12-22T08:48:41;4.07;;;1.60;;
82797;SDS011;72540;62.834;27.606;2023-12-22T08:51:06;4.22;;;1.30;;
82797;SDS011;72540;62.834;27.606;2023-12-22T08:53:35;2.97;;;1.05;;
82797;SDS011;72540;62.834;27.606;2023-12-22T08:56:02;5.47;;;1.30;;
82797;SDS011;72540;62.834;27.606;2023-12-22T08:58:28;3.08;;;0.85;;
82797;SDS011;72540;62.834;27.606;2023-12-22T09:00:54;2.85;;;0.90;;
82797;SDS011;72540;62.834;27.606;2023-12-22T09:03:20;4.53;;;1.50;;
82797;SDS011;72540;62.834;27.606;2023-12-22T09:05:46;3.70;;;1.05;;
82797;SDS011;72540;62.834;27.606;2023-12-22T09:08:12;4.20;;;1.15;;
82797;SDS011;72540;62.834;27.606;2023-12-22T09:10:38;4.38;;;1.80;;
82797;SDS011;72540;62.834;27.606;2023-12-22T09:13:04;5.53;;;1.30;;
82797;SDS011;72540;62.834;27.606;2023-12-22T09:15:30;6.10;;;1.50;;
82797;SDS011;72540;62.834;27.606;2023-12-22T09:17:55;3.55;;;1.02;;
82797;SDS011;72540;62.834;27.606;2023-12-22T09:20:21;5.32;;;1.42;;
82797;SDS011;72540;62.834;27.606;2023-12-22T09:22:47;3.33;;;1.02;;
82797;SDS011;72540;62.834;27.606;2023-12-22T09:25:13;4.05;;;1.17;;
82797;SDS011;72540;62.834;27.606;2023-12-22T09:27:39;3.55;;;1.00;;
82797;SDS011;72540;62.834;27.606;2023-12-22T09:30:05;4.55;;;1.20;;
82797;SDS011;72540;62.834;27.606;2023-12-22T09:32:34;4.97;;;1.20;;
82797;SDS011;72540;62.834;27.606;2023-12-22T09:35:00;4.15;;;1.40;;
82797;SDS011;72540;62.834;27.606;2023-12-22T09:37:26;4.30;;;1.00;;
82797;SDS011;72540;62.834;27.606;2023-12-22T09:39:52;4.00;;;1.40;;
82797;SDS011;72540;62.834;27.606;2023-12-22T09:42:21;4.38;;;1.20;;
82797;SDS011;72540;62.834;27.606;2023-12-22T09:44:50;7.20;;;1.75;;
82797;SDS011;72540;62.834;27.606;2023-12-22T09:47:19;6.50;;;1.35;;
82797;SDS011;72540;62.834;27.606;2023-12-22T09:49:46;7.20;;;1.33;;
82797;SDS011;72540;62.834;27.606;2023-12-22T09:52:12;5.30;;;1.42;;
82797;SDS011;72540;62.834;27.606;2023-12-22T09:54:39;5.45;;;1.73;;
82797;SDS011;72540;62.834;27.606;2023-12-22T09:57:05;3.92;;;1.13;;
82797;SDS011;72540;62.834;27.606;2023-12-22T09:59:32;6.82;;;1.73;;
82797;SDS011;72540;62.834;27.606;2023-12-22T10:01:58;4.80;;;1.48;;
82797;SDS011;72540;62.834;27.606;2023-12-22T10:04:25;6.28;;;2.50;;
82797;SDS011;72540;62.834;27.606;2023-12-22T10:06:51;6.45;;;1.80;;
82797;SDS011;72540;62.834;27.606;2023-12-22T10:09:16;7.63;;;1.70;;
82797;SDS011;72540;62.834;27.606;2023-12-22T10:11:43;7.63;;;1.63;;
82797;SDS011;72540;62.834;27.606;2023-12-22T10:14:09;5.82;;;1.58;;
82797;SDS011;72540;62.834;27.606;2023-12-22T10:16:36;4.72;;;1.67;;
82797;SDS011;72540;62.834;27.606;2023-12-22T10:19:05;5.82;;;1.48;;
82797;SDS011;72540;62.834;27.606;2023-12-22T10:21:32;5.93;;;1.83;;
82797;SDS011;72540;62.834;27.606;2023-12-22T10:23:58;5.80;;;1.95;;
82797;SDS011;72540;62.834;27.606;2023-12-22T10:26:24;4.25;;;1.35;;
82797;SDS011;72540;62.834;27.606;2023-12-22T10:28:50;5.47;;;1.63;;
82797;SDS011;72540;62.834;27.606;2023-12-22T10:31:16;6.15;;;1.90;;
82797;SDS011;72540;62.834;27.606;2023-12-22T10:33:43;7.70;;;2.08;;
82797;SDS011;72540;62.834;27.606;2023-12-22T10:36:08;7.07;;;2.10;;
82797;SDS011;72540;62.834;27.606;2023-12-22T10:38:35;9.57;;;1.98;;
82797;SDS011;72540;62.834;27.606;2023-12-22T10:41:01;7.50;;;2.30;;
82797;SDS011;72540;62.834;27.606;2023-12-22T10:43:28;6.55;;;1.98;;
82797;SDS011;72540;62.834;27.606;2023-12-22T10:45:54;8.55;;;2.55;;
82797;SDS011;72540;62.834;27.606;2023-12-22T10:48:21;6.90;;;2.78;;
82797;SDS011;72540;62.834;27.606;2023-12-22T10:50:49;7.38;;;2.33;;
82797;SDS011;72540;62.834;27.606;2023-12-22T10:53:15;5.65;;;1.55;;
82797;SDS011;72540;62.834;27.606;2023-12-22T10:55:46;7.88;;;2.50;;
82797;SDS011;72540;62.834;27.606;2023-12-22T10:58:16;5.47;;;1.58;;
82797;SDS011;72540;62.834;27.606;2023-12-22T11:00:43;6.53;;;2.22;;
82797;SDS011;72540;62.834;27.606;2023-12-22T11:03:12;5.88;;;1.85;;
82797;SDS011;72540;62.834;27.606;2023-12-22T11:05:41;7.40;;;2.75;;
82797;SDS011;72540;62.834;27.606;2023-12-22T11:08:10;6.28;;;1.90;;
82797;SDS011;72540;62.834;27.606;2023-12-22T11:10:37;6.60;;;1.98;;
82797;SDS011;72540;62.834;27.606;2023-12-22T11:13:08;6.20;;;2.30;;
82797;SDS011;72540;62.834;27.606;2023-12-22T11:15:35;7.55;;;2.60;;
82797;SDS011;72540;62.834;27.606;2023-12-22T11:18:01;7.75;;;2.70;;
82797;SDS011;72540;62.834;27.606;2023-12-22T11:20:27;9.15;;;2.40;;
82797;SDS011;72540;62.834;27.606;2023-12-22T11:22:57;8.40;;;2.90;;
82797;SDS011;72540;62.834;27.606;2023-12-22T11:25:25;11.57;;;2.97;;
82797;SDS011;72540;62.834;27.606;2023-12-22T11:27:52;7.75;;;2.50;;
82797;SDS011;72540;62.834;27.606;2023-12-22T11:30:21;7.45;;;2.50;;
82797;SDS011;72540;62.834;27.606;2023-12-22T11:32:49;8.20;;;3.03;;
82797;SDS011;72540;62.834;27.606;2023-12-22T11:35:15;12.07;;;2.67;;
82797;SDS011;72540;62.834;27.606;2023-12-22T11:37:42;7.50;;;2.22;;
82797;SDS011;72540;62.834;27.606;2023-12-22T11:40:08;9.55;;;2.80;;
82797;SDS011;72540;62.834;27.606;2023-12-22T11:42:36;7.32;;;2.38;;
82797;SDS011;72540;62.834;27.606;2023-12-22T11:45:11;10.25;;;2.28;;
82797;SDS011;72540;62.834;27.606;2023-12-22T11:47:45;9.95;;;3.05;;
82797;SDS011;72540;62.834;27.606;2023-12-22T11:50:11;12.00;;;3.88;;
82797;SDS011;72540;62.834;27.606;2023-12-22T11:52:37;8.20;;;2.65;;
82797;SDS011;72540;62.834;27.606;2023-12-22T11:55:04;8.02;;;2.65;;
82797;SDS011;72540;62.834;27.606;2023-12-22T11:57:32;10.48;;;2.95;;
82797;SDS011;72540;62.834;27.606;2023-12-22T12:00:06;8.65;;;2.97;;
82797;SDS011;72540;62.834;27.606;2023-12-22T12:02:33;7.40;;;2.40;;
82797;SDS011;72540;62.834;27.606;2023-12-22T12:05:03;9.07;;;2.88;;
82797;SDS011;72540;62.834;27.606;2023-12-22T12:07:36;4.93;;;2.13;;
82797;SDS011;72540;62.834;27.606;2023-12-22T12:10:56;9.23;;;3.00;;
82797;SDS011;72540;62.834;27.606;2023-12-22T12:15:33;7.47;;;3.05;;
82797;SDS011;72540;62.834;27.606;2023-12-22T12:18:00;9.65;;;2.97;;
82797;SDS011;72540;62.834;27.606;2023-12-22T12:20:26;10.25;;;2.90;;
82797;SDS011;72540;62.834;27.606;2023-12-22T12:22:52;10.60;;;3.20;;
82797;SDS011;72540;62.834;27.606;2023-12-22T12:25:27;10.75;;;3.25;;
82797;SDS011;72540;62.834;27.606;2023-12-22T12:28:07;7.90;;;2.70;;
82797;SDS011;72540;62.834;27.606;2023-12-22T12:30:35;6.70;;;2.17;;
82797;SDS011;72540;62.834;27.606;2023-12-22T12:33:08;7.15;;;2.60;;
82797;SDS011;72540;62.834;27.606;2023-12-22T12:35:35;7.88;;;3.03;;
82797;SDS011;72540;62.834;27.606;2023-12-22T12:38:02;8.25;;;2.10;;
82797;SDS011;72540;62.834;27.606;2023-12-22T12:40:28;6.45;;;2.45;;
82797;SDS011;72540;62.834;27.606;2023-12-22T12:43:00;7.35;;;2.42;;
82797;SDS011;72540;62.834;27.606;2023-12-22T12:45:26;5.80;;;1.60;;
82797;SDS011;72540;62.834;27.606;2023-12-22T12:47:55;6.95;;;1.88;;
82797;SDS011;72540;62.834;27.606;2023-12-22T12:50:25;7.70;;;2.05;;
82797;SDS011;72540;62.834;27.606;2023-12-22T12:52:52;9.65;;;2.13;;
82797;SDS011;72540;62.834;27.606;2023-12-22T12:55:21;8.57;;;2.75;;
82797;SDS011;72540;62.834;27.606;2023-12-22T12:57:49;7.90;;;2.22;;
82797;SDS011;72540;62.834;27.606;2023-12-22T13:00:24;9.90;;;2.88;;
82797;SDS011;72540;62.834;27.606;2023-12-22T13:02:54;8.85;;;2.38;;
82797;SDS011;72540;62.834;27.606;2023-12-22T13:05:30;9.15;;;2.72;;
82797;SDS011;72540;62.834;27.606;2023-12-22T13:08:09;7.82;;;2.60;;
82797;SDS011;72540;62.834;27.606;2023-12-22T13:10:35;7.55;;;2.38;;
82797;SDS011;72540;62.834;27.606;2023-12-22T13:13:01;10.07;;;2.53;;
82797;SDS011;72540;62.834;27.606;2023-12-22T13:15:28;7.70;;;2.40;;
82797;SDS011;72540;62.834;27.606;2023-12-22T13:17:54;9.13;;;3.35;;
82797;SDS011;72540;62.834;27.606;2023-12-22T13:20:20;6.28;;;1.90;;
82797;SDS011;72540;62.834;27.606;2023-12-22T13:22:46;9.50;;;2.55;;
82797;SDS011;72540;62.834;27.606;2023-12-22T13:25:12;8.63;;;2.35;;
82797;SDS011;72540;62.834;27.606;2023-12-22T13:27:44;8.90;;;2.40;;
82797;SDS011;72540;62.834;27.606;2023-12-22T13:30:11;9.02;;;2.55;;
82797;SDS011;72540;62.834;27.606;2023-12-22T13:32:37;8.60;;;2.45;;
82797;SDS011;72540;62.834;27.606;2023-12-22T13:35:03;9.15;;;2.42;;
82797;SDS011;72540;62.834;27.606;2023-12-22T13:37:30;7.78;;;2.13;;
82797;SDS011;72540;62.834;27.606;2023-12-22T13:39:56;6.97;;;2.17;;
82797;SDS011;72540;62.834;27.606;2023-12-22T13:42:23;7.32;;;2.55;;
82797;SDS011;72540;62.834;27.606;2023-12-22T13:44:49;8.30;;;2.80;;
82797;SDS011;72540;62.834;27.606;2023-12-22T13:47:20;7.70;;;2.58;;
82797;SDS011;72540;62.834;27.606;2023-12-22T13:49:46;8.40;;;2.65;;
82797;SDS011;72540;62.834;27.606;2023-12-22T13:52:24;8.45;;;2.22;;
82797;SDS011;72540;62.834;27.606;2023-12-22T13:54:52;8.38;;;2.65;;
82797;SDS011;72540;62.834;27.606;2023-12-22T13:57:21;10.15;;;2.85;;
82797;SDS011;72540;62.834;27.606;2023-12-22T13:59:48;8.43;;;2.90;;
82797;SDS011;72540;62.834;27.606;2023-12-22T14:02:13;7.53;;;2.80;;
82797;SDS011;72540;62.834;27.606;2023-12-22T14:04:39;7.85;;;2.65;;
82797;SDS011;72540;62.834;27.606;2023-12-22T14:07:05;6.25;;;1.90;;
82797;SDS011;72540;62.834;27.606;2023-12-22T14:09:31;8.43;;;2.92;;
82797;SDS011;72540;62.834;27.606;2023-12-22T14:11:59;7.60;;;2.30;;
82797;SDS011;72540;62.834;27.606;2023-12-22T14:14:24;8.55;;;2.47;;
82797;SDS011;72540;62.834;27.606;2023-12-22T14:16:50;9.35;;;2.70;;
82797;SDS011;72540;62.834;27.606;2023-12-22T14:19:16;8.18;;;3.13;;
82797;SDS011;72540;62.834;27.606;2023-12-22T14:21:42;10.27;;;3.20;;
82797;SDS011;72540;62.834;27.606;2023-12-22T14:24:07;8.98;;;2.78;;
82797;SDS011;72540;62.834;27.606;2023-12-22T14:26:33;10.63;;;3.55;;
82797;SDS011;72540;62.834;27.606;2023-12-22T14:29:17;6.20;;;2.40;;
82797;SDS011;72540;62.834;27.606;2023-12-22T14:31:43;8.60;;;3.00;;
82797;SDS011;72540;62.834;27.606;2023-12-22T14:34:12;9.00;;;2.30;;
82797;SDS011;72540;62.834;27.606;2023-12-22T14:36:39;7.63;;;2.15;;